Time;durP1;ratioP1;P1;durP2;ratioP2;P2;SDS_P1;SDS_P2;PMS_P1;PMS_P2;Temp;Humidity;BMP_temperature;BMP_pressure;BME280_temperature;BME280_humidity;BME280_pressure;Samples;Min_cycle;Max_cycle;Signal;HPM_P1;HPM_P2
2021/10/18 00:01:59;;;;;;;12.75;7.00;;;10.80;99.90;;;;;;5008087;28;20235;-81
2021/10/18 00:04:27;;;;;;;13.57;7.22;;;10.80;99.90;;;;;;5015961;28;20651;-82
2021/10/18 00:06:54;;;;;;;15.15;7.80;;;10.80;99.90;;;;;;5018096;28;20214;-82
2021/10/18 00:09:23;;;;;;;10.52;8.65;;;10.80;99.90;;;;;;5019685;28;20650;-83
2021/10/18 00:11:50;;;;;;;12.30;7.40;;;10.70;99.90;;;;;;5017793;28;20202;-83
2021/10/18 00:14:17;;;;;;;10.20;7.40;;;10.70;99.90;;;;;;5008248;28;20952;-82
2021/10/18 00:16:45;;;;;;;9.10;8.20;;;10.70;99.90;;;;;;5021647;28;20212;-83
2021/10/18 00:19:15;;;;;;;11.50;7.00;;;10.70;99.90;;;;;;5012633;28;20186;-82
2021/10/18 00:21:42;;;;;;;8.88;7.00;;;10.70;99.90;;;;;;5014249;28;20638;-82
2021/10/18 00:24:12;;;;;;;14.10;7.45;;;10.70;99.90;;;;;;5018185;28;20208;-83
2021/10/18 00:26:41;;;;;;;11.52;8.57;;;10.70;99.90;;;;;;5006523;28;20570;-82
2021/10/18 00:29:08;;;;;;;11.35;8.07;;;10.70;99.90;;;;;;5014361;28;20233;-82
2021/10/18 00:31:35;;;;;;;10.60;8.20;;;10.70;99.90;;;;;;5016788;28;20202;-82
2021/10/18 00:34:02;;;;;;;11.02;7.78;;;10.70;99.90;;;;;;5017692;28;20202;-82
2021/10/18 00:36:29;;;;;;;12.10;8.38;;;10.70;99.90;;;;;;5014268;28;20205;-81
2021/10/18 00:39:06;;;;;;;16.67;8.87;;;10.80;99.90;;;;;;5010370;28;20396;-82
2021/10/18 00:41:34;;;;;;;12.23;9.00;;;10.80;99.90;;;;;;5013690;28;20461;-81
2021/10/18 00:44:02;;;;;;;10.52;8.95;;;10.80;99.90;;;;;;5014253;28;20186;-81
2021/10/18 00:46:30;;;;;;;12.90;8.50;;;10.80;99.90;;;;;;5012743;28;20209;-84
2021/10/18 00:48:58;;;;;;;12.00;9.03;;;10.80;99.90;;;;;;5014046;28;20202;-81
2021/10/18 00:51:27;;;;;;;10.30;8.13;;;10.80;99.90;;;;;;5007422;28;20465;-83
2021/10/18 00:53:57;;;;;;;15.13;8.80;;;10.90;99.90;;;;;;5014238;28;20671;-82
2021/10/18 00:56:25;;;;;;;16.10;9.40;;;10.80;99.90;;;;;;5019875;28;20220;-81
2021/10/18 00:58:54;;;;;;;15.68;8.90;;;10.90;99.90;;;;;;5021127;28;20452;-82
2021/10/18 01:01:24;;;;;;;12.75;8.48;;;10.90;99.90;;;;;;5015108;28;20226;-82
2021/10/18 01:03:51;;;;;;;10.38;7.97;;;10.90;99.90;;;;;;5021509;28;20205;-81
2021/10/18 01:06:19;;;;;;;7.70;6.80;;;10.90;99.90;;;;;;5004005;28;20203;-81
2021/10/18 01:08:48;;;;;;;11.32;8.20;;;10.90;99.90;;;;;;5014855;28;20218;-82
2021/10/18 01:11:15;;;;;;;12.57;7.90;;;10.80;99.90;;;;;;5022795;28;20193;-81
2021/10/18 01:13:44;;;;;;;12.02;8.18;;;10.80;99.90;;;;;;5020767;28;20557;-82
2021/10/18 01:16:11;;;;;;;12.35;9.05;;;10.80;99.90;;;;;;5020049;28;20196;-81
2021/10/18 01:18:41;;;;;;;9.90;7.63;;;10.80;99.90;;;;;;5017478;28;20288;-83
2021/10/18 01:21:10;;;;;;;12.40;8.45;;;10.70;99.90;;;;;;5013449;28;20217;-81
2021/10/18 01:23:38;;;;;;;14.82;9.32;;;10.70;99.90;;;;;;5013244;28;20191;-83
2021/10/18 01:26:05;;;;;;;11.80;8.48;;;10.70;99.90;;;;;;5016315;28;20213;-83
2021/10/18 01:28:33;;;;;;;9.20;8.18;;;10.60;99.90;;;;;;5014560;28;20225;-81
2021/10/18 01:31:01;;;;;;;14.80;9.38;;;10.60;99.90;;;;;;5013252;28;20198;-81
2021/10/18 01:33:28;;;;;;;13.18;7.30;;;10.60;99.90;;;;;;5013727;28;20649;-83
2021/10/18 01:35:55;;;;;;;12.23;8.20;;;10.50;99.90;;;;;;5018627;28;20201;-81
2021/10/18 01:38:23;;;;;;;15.48;7.50;;;10.50;99.90;;;;;;5016682;28;20202;-82
2021/10/18 01:40:52;;;;;;;13.10;8.48;;;10.40;99.90;;;;;;5014945;28;20569;-82
2021/10/18 01:43:19;;;;;;;10.52;7.85;;;10.40;99.90;;;;;;5018023;28;20228;-83
2021/10/18 01:45:46;;;;;;;19.10;8.57;;;10.40;99.90;;;;;;5023962;28;20201;-82
2021/10/18 01:48:13;;;;;;;17.48;8.52;;;10.30;99.90;;;;;;5016485;28;20767;-82
2021/10/18 01:50:41;;;;;;;13.07;8.60;;;10.30;99.90;;;;;;5018378;28;20213;-82
2021/10/18 01:53:08;;;;;;;12.75;7.68;;;10.30;99.90;;;;;;5015239;28;20195;-84
2021/10/18 01:55:37;;;;;;;14.70;8.55;;;10.20;99.90;;;;;;5016510;28;20314;-83
2021/10/18 01:58:04;;;;;;;11.02;8.23;;;10.20;99.90;;;;;;5015916;28;20220;-83
2021/10/18 02:00:32;;;;;;;9.07;7.97;;;10.10;99.90;;;;;;5017610;28;20228;-82
2021/10/18 02:02:59;;;;;;;16.00;7.32;;;10.10;99.90;;;;;;5010888;28;20203;-81
2021/10/18 02:05:27;;;;;;;14.60;8.18;;;10.10;99.90;;;;;;5008055;28;20569;-81
2021/10/18 02:07:53;;;;;;;14.57;7.80;;;10.00;99.90;;;;;;5004635;28;20243;-83
2021/10/18 02:10:21;;;;;;;10.13;8.10;;;10.00;99.90;;;;;;5015714;28;20233;-82
2021/10/18 02:12:52;;;;;;;15.52;10.55;;;10.00;99.90;;;;;;5015454;28;20202;-81
2021/10/18 02:15:19;;;;;;;11.77;8.27;;;10.00;99.90;;;;;;5013920;28;20718;-81
2021/10/18 02:17:47;;;;;;;8.80;7.85;;;10.00;99.90;;;;;;5012701;28;20201;-83
2021/10/18 02:20:16;;;;;;;11.82;8.43;;;9.90;99.90;;;;;;5017576;28;20239;-82
2021/10/18 02:22:43;;;;;;;17.35;8.43;;;9.90;99.90;;;;;;5005886;28;20193;-81
2021/10/18 02:25:12;;;;;;;10.40;9.18;;;9.90;99.90;;;;;;5014840;28;20214;-83
2021/10/18 02:27:39;;;;;;;12.02;9.25;;;9.90;99.90;;;;;;5005791;28;20362;-81
2021/10/18 02:30:10;;;;;;;13.85;8.70;;;9.90;99.90;;;;;;5005443;28;20204;-82
2021/10/18 02:32:37;;;;;;;12.23;8.63;;;9.90;99.90;;;;;;5007101;28;20276;-81
2021/10/18 02:35:05;;;;;;;11.70;7.78;;;9.90;99.90;;;;;;5011998;28;20209;-82
2021/10/18 02:37:32;;;;;;;12.77;8.93;;;9.90;99.90;;;;;;5020890;28;20498;-82
2021/10/18 02:39:59;;;;;;;13.57;8.60;;;9.90;99.90;;;;;;5017558;28;20193;-81
2021/10/18 02:42:27;;;;;;;15.52;10.38;;;9.90;99.90;;;;;;5017843;28;20199;-83
2021/10/18 02:44:54;;;;;;;13.65;9.93;;;9.90;99.90;;;;;;5021872;28;20207;-82
2021/10/18 02:47:22;;;;;;;18.17;10.77;;;10.00;99.90;;;;;;5016323;28;20205;-82
2021/10/18 02:49:50;;;;;;;20.15;9.32;;;10.00;99.90;;;;;;5020524;28;20197;-81
2021/10/18 02:52:17;;;;;;;14.95;9.80;;;10.00;99.90;;;;;;5012750;28;20568;-82
2021/10/18 02:54:44;;;;;;;11.60;9.45;;;10.00;99.90;;;;;;5018787;28;20211;-82
2021/10/18 02:57:12;;;;;;;17.30;9.82;;;10.00;99.90;;;;;;5020008;28;20212;-82
2021/10/18 02:59:39;;;;;;;22.42;8.60;;;10.00;99.90;;;;;;5022684;28;20202;-81
2021/10/18 03:02:05;;;;;;;15.75;9.30;;;10.00;99.90;;;;;;5011510;28;20252;-83
2021/10/18 03:04:36;;;;;;;11.75;9.88;;;10.00;99.90;;;;;;5010746;28;20198;-82
2021/10/18 03:07:04;;;;;;;20.95;10.27;;;10.00;99.90;;;;;;5016266;28;20669;-82
2021/10/18 03:09:33;;;;;;;14.68;9.15;;;10.00;99.90;;;;;;5009241;28;20332;-82
2021/10/18 03:12:01;;;;;;;19.95;10.00;;;10.00;99.90;;;;;;5013236;28;22178;-81
2021/10/18 03:14:29;;;;;;;24.58;10.65;;;10.00;99.90;;;;;;5016462;28;20222;-81
2021/10/18 03:16:57;;;;;;;10.52;7.97;;;10.00;99.90;;;;;;5019800;28;20198;-81
2021/10/18 03:19:25;;;;;;;12.80;8.48;;;10.00;99.90;;;;;;5013304;28;20233;-82
2021/10/18 03:21:54;;;;;;;15.32;9.25;;;10.00;99.90;;;;;;5020207;28;20546;-82
2021/10/18 03:24:21;;;;;;;17.60;10.55;;;9.90;99.90;;;;;;5021751;28;20216;-82
2021/10/18 03:26:48;;;;;;;15.80;9.35;;;10.00;99.90;;;;;;5012443;28;20207;-81
2021/10/18 03:29:15;;;;;;;15.07;9.05;;;9.90;99.90;;;;;;5015024;28;20224;-82
2021/10/18 03:31:43;;;;;;;13.45;9.00;;;10.00;99.90;;;;;;5012900;28;20200;-82
2021/10/18 03:34:10;;;;;;;13.27;8.95;;;9.90;99.90;;;;;;5013068;28;20201;-81
2021/10/18 03:36:37;;;;;;;11.75;10.55;;;9.90;99.90;;;;;;5010825;28;20260;-82
2021/10/18 03:39:06;;;;;;;9.05;8.15;;;9.90;99.90;;;;;;5018364;28;20212;-82
2021/10/18 03:41:34;;;;;;;17.40;9.65;;;9.90;99.90;;;;;;5014596;28;20653;-82
2021/10/18 03:44:02;;;;;;;11.73;8.73;;;9.90;99.90;;;;;;5012922;28;20233;-81
2021/10/18 03:46:29;;;;;;;11.18;9.10;;;9.80;99.90;;;;;;5008699;28;20205;-81
2021/10/18 03:48:57;;;;;;;13.70;8.75;;;9.90;99.90;;;;;;5017063;28;20220;-81
2021/10/18 03:51:26;;;;;;;13.05;8.30;;;9.90;99.90;;;;;;5015908;28;20208;-82
2021/10/18 03:53:53;;;;;;;13.82;8.70;;;9.90;99.90;;;;;;5010707;28;20208;-82
2021/10/18 03:56:23;;;;;;;8.57;7.57;;;9.90;99.90;;;;;;5016750;28;20678;-83
2021/10/18 03:58:49;;;;;;;8.95;8.02;;;9.90;99.90;;;;;;5012340;28;20268;-83
2021/10/18 04:01:17;;;;;;;11.57;8.90;;;9.90;99.90;;;;;;5010491;28;20232;-81
2021/10/18 04:03:45;;;;;;;11.88;8.55;;;10.00;99.90;;;;;;5014789;28;20197;-83
2021/10/18 04:06:12;;;;;;;11.40;7.85;;;10.00;99.90;;;;;;5015410;28;20599;-81
2021/10/18 04:08:41;;;;;;;10.13;8.65;;;10.10;99.90;;;;;;5018934;28;20221;-82
2021/10/18 04:11:08;;;;;;;9.90;7.20;;;10.10;99.90;;;;;;5017384;28;20227;-81
2021/10/18 04:13:37;;;;;;;9.68;8.27;;;10.10;99.90;;;;;;5013317;28;20205;-83
2021/10/18 04:16:04;;;;;;;8.88;7.97;;;10.10;99.90;;;;;;5009446;28;20259;-83
2021/10/18 04:18:32;;;;;;;13.02;8.05;;;10.20;99.90;;;;;;5011922;28;20211;-81
2021/10/18 04:21:01;;;;;;;11.52;8.25;;;10.20;99.90;;;;;;5019568;28;20724;-82
2021/10/18 04:23:31;;;;;;;23.13;10.20;;;10.30;99.90;;;;;;5019676;28;20201;-82
2021/10/18 04:25:57;;;;;;;11.30;9.52;;;10.30;99.90;;;;;;5015377;28;20217;-82
2021/10/18 04:28:24;;;;;;;16.52;9.23;;;10.30;99.90;;;;;;5017917;28;20222;-82
2021/10/18 04:30:54;;;;;;;10.73;9.07;;;10.20;99.90;;;;;;5012230;28;20726;-83
2021/10/18 04:33:21;;;;;;;17.23;9.52;;;10.20;99.90;;;;;;5006884;28;20711;-83
2021/10/18 04:35:48;;;;;;;10.73;8.10;;;10.20;99.90;;;;;;5017927;28;20195;-81
2021/10/18 04:38:15;;;;;;;9.25;7.40;;;10.20;99.90;;;;;;5011472;28;20743;-81
2021/10/18 04:40:41;;;;;;;8.38;7.57;;;10.20;99.90;;;;;;5016191;28;20314;-83
2021/10/18 04:43:10;;;;;;;10.18;7.53;;;10.20;99.90;;;;;;5019626;28;20205;-82
2021/10/18 04:45:38;;;;;;;9.65;7.28;;;10.30;99.90;;;;;;5018965;28;20193;-83
2021/10/18 04:48:07;;;;;;;9.75;7.20;;;10.30;99.90;;;;;;5016923;28;20571;-83
2021/10/18 04:50:34;;;;;;;28.10;21.02;;;10.30;99.90;;;;;;5016494;28;20202;-82
2021/10/18 04:53:01;;;;;;;28.38;20.67;;;10.30;99.90;;;;;;5009888;28;20194;-83
2021/10/18 04:55:28;;;;;;;9.27;8.43;;;10.30;99.90;;;;;;5012974;28;20275;-82
2021/10/18 04:57:57;;;;;;;9.60;7.05;;;10.30;99.90;;;;;;5009328;28;20198;-83
2021/10/18 05:00:26;;;;;;;9.93;8.13;;;10.40;99.90;;;;;;5015383;28;20258;-82
2021/10/18 05:02:53;;;;;;;13.68;7.28;;;10.30;99.90;;;;;;5018993;28;20198;-83
2021/10/18 05:05:22;;;;;;;8.27;7.32;;;10.40;99.90;;;;;;5020074;28;20195;-83
2021/10/18 05:08:03;;;;;;;7.10;6.40;;;10.40;99.90;;;;;;5023102;28;20193;-81
2021/10/18 05:10:43;;;;;;;8.93;7.28;;;10.50;99.90;;;;;;5011108;28;20579;-82
2021/10/18 05:13:12;;;;;;;10.05;6.95;;;10.50;99.90;;;;;;5017225;28;20653;-83
2021/10/18 05:15:40;;;;;;;8.00;7.20;;;10.50;99.90;;;;;;5022792;28;20251;-83
2021/10/18 05:18:07;;;;;;;9.48;7.57;;;10.50;99.90;;;;;;5022828;28;20207;-81
2021/10/18 05:20:36;;;;;;;11.13;8.07;;;10.50;99.90;;;;;;5014524;28;20199;-82
2021/10/18 05:23:04;;;;;;;12.18;7.68;;;10.50;99.90;;;;;;5014989;28;20203;-82
2021/10/18 05:25:31;;;;;;;8.60;7.18;;;10.60;99.90;;;;;;5023145;28;20565;-82
2021/10/18 05:27:59;;;;;;;8.98;6.95;;;10.60;99.90;;;;;;5017740;28;20209;-82
2021/10/18 05:30:27;;;;;;;9.60;7.10;;;10.60;99.90;;;;;;5017367;28;20214;-82
2021/10/18 05:32:55;;;;;;;10.38;7.70;;;10.60;99.90;;;;;;5019061;28;20282;-82
2021/10/18 05:35:22;;;;;;;8.27;7.45;;;10.60;99.90;;;;;;5018004;28;20225;-84
2021/10/18 05:37:51;;;;;;;7.73;6.93;;;10.60;99.90;;;;;;5013860;28;20210;-83
2021/10/18 05:40:19;;;;;;;16.20;8.23;;;10.70;99.90;;;;;;5014983;28;20489;-82
2021/10/18 05:42:47;;;;;;;10.40;7.32;;;10.70;99.90;;;;;;5016967;28;20608;-82
2021/10/18 05:45:14;;;;;;;9.48;7.50;;;10.70;99.90;;;;;;5022181;28;20206;-81
2021/10/18 05:47:58;;;;;;;10.00;6.30;;;10.70;99.90;;;;;;5008265;28;20615;-83
2021/10/18 05:50:26;;;;;;;10.65;7.38;;;10.70;99.90;;;;;;5014196;28;20234;-83
2021/10/18 05:52:55;;;;;;;9.40;6.97;;;10.70;99.90;;;;;;5020424;28;20288;-82
2021/10/18 05:55:22;;;;;;;11.35;7.65;;;10.70;99.90;;;;;;5018074;28;20268;-83
2021/10/18 05:57:51;;;;;;;11.83;7.37;;;10.70;99.90;;;;;;5017742;28;20204;-82
2021/10/18 06:00:18;;;;;;;11.98;7.57;;;10.70;99.90;;;;;;5013600;28;20494;-81
2021/10/18 06:02:46;;;;;;;9.52;7.03;;;10.70;99.90;;;;;;5015680;28;20214;-82
2021/10/18 06:05:13;;;;;;;10.07;6.88;;;10.70;99.90;;;;;;5016805;28;20221;-81
2021/10/18 06:07:40;;;;;;;13.35;7.63;;;10.70;99.90;;;;;;5012318;28;20199;-83
2021/10/18 06:10:11;;;;;;;9.48;6.55;;;10.70;99.90;;;;;;5009507;28;20229;-81
2021/10/18 06:12:38;;;;;;;14.05;7.43;;;10.70;99.90;;;;;;5009402;28;20232;-82
2021/10/18 06:15:07;;;;;;;9.77;6.88;;;10.70;99.90;;;;;;5017998;28;20213;-83
2021/10/18 06:17:34;;;;;;;11.18;7.88;;;10.70;99.90;;;;;;5013173;28;20295;-82
2021/10/18 06:20:01;;;;;;;11.32;6.85;;;10.80;99.90;;;;;;5015483;28;20193;-82
2021/10/18 06:22:28;;;;;;;13.18;7.32;;;10.80;99.90;;;;;;5013145;28;20204;-83
2021/10/18 06:24:55;;;;;;;13.25;7.60;;;10.80;99.90;;;;;;5009756;28;20223;-82
2021/10/18 06:27:23;;;;;;;11.07;7.28;;;10.80;99.90;;;;;;5017266;28;20304;-82
2021/10/18 06:29:50;;;;;;;16.77;7.35;;;10.80;99.90;;;;;;5009761;28;20306;-83
2021/10/18 06:32:17;;;;;;;11.18;7.63;;;10.80;99.90;;;;;;5012446;28;20202;-82
2021/10/18 06:34:44;;;;;;;9.95;7.82;;;10.90;99.90;;;;;;5015263;28;20212;-82
2021/10/18 06:37:11;;;;;;;9.23;8.05;;;10.90;99.90;;;;;;5011874;28;20683;-81
2021/10/18 06:39:38;;;;;;;22.90;8.68;;;10.90;99.90;;;;;;5009807;28;20252;-82
2021/10/18 06:42:05;;;;;;;39.10;25.05;;;10.90;99.90;;;;;;5014873;28;20197;-82
2021/10/18 06:44:34;;;;;;;22.65;15.15;;;10.90;99.90;;;;;;5019790;28;20243;-83
2021/10/18 06:47:01;;;;;;;15.30;9.25;;;10.90;99.90;;;;;;5015441;28;20210;-82
2021/10/18 06:49:28;;;;;;;9.43;7.80;;;10.90;99.90;;;;;;5006510;28;20213;-84
2021/10/18 06:51:56;;;;;;;14.05;7.50;;;10.90;99.90;;;;;;5019248;28;20195;-81
2021/10/18 06:54:23;;;;;;;14.90;8.20;;;10.90;99.90;;;;;;5022385;28;20251;-83
2021/10/18 06:56:52;;;;;;;14.27;9.23;;;10.80;99.90;;;;;;5012186;28;20461;-81
2021/10/18 06:59:19;;;;;;;8.02;7.32;;;10.80;99.90;;;;;;5006860;28;20531;-83
2021/10/18 07:01:48;;;;;;;8.15;6.85;;;10.80;99.90;;;;;;5010892;28;20326;-81
2021/10/18 07:04:18;;;;;;;12.73;8.00;;;10.80;99.90;;;;;;5009605;28;20197;-82
2021/10/18 07:06:45;;;;;;;10.53;8.10;;;10.80;99.90;;;;;;5009261;28;20328;-83
2021/10/18 07:09:12;;;;;;;11.85;8.57;;;10.80;99.90;;;;;;5009168;28;20484;-82
2021/10/18 07:11:39;;;;;;;14.55;7.88;;;10.80;99.90;;;;;;5011070;28;20201;-82
2021/10/18 07:14:06;;;;;;;11.75;8.40;;;10.80;99.90;;;;;;5008915;28;20206;-82
2021/10/18 07:16:33;;;;;;;10.80;7.75;;;10.80;99.90;;;;;;5015537;28;20209;-83
2021/10/18 07:19:01;;;;;;;10.20;8.50;;;10.80;99.90;;;;;;5009415;28;20203;-83
2021/10/18 07:21:29;;;;;;;9.90;8.75;;;10.90;99.90;;;;;;5008092;28;20206;-82
2021/10/18 07:23:58;;;;;;;12.18;8.07;;;10.90;99.90;;;;;;5007339;28;20205;-82
2021/10/18 07:26:25;;;;;;;9.95;8.18;;;10.90;99.90;;;;;;5013849;28;20315;-84
2021/10/18 07:28:54;;;;;;;16.15;8.18;;;10.90;99.90;;;;;;5011647;28;20193;-82
2021/10/18 07:31:21;;;;;;;14.30;8.57;;;10.90;99.90;;;;;;5014534;28;20254;-83
2021/10/18 07:33:49;;;;;;;12.15;8.02;;;10.90;99.90;;;;;;5011328;28;20814;-83
2021/10/18 07:36:24;;;;;;;13.37;7.70;;;10.90;99.90;;;;;;5010461;28;20204;-82
2021/10/18 07:38:51;;;;;;;14.05;8.75;;;10.90;99.90;;;;;;5010921;28;20459;-82
2021/10/18 07:41:18;;;;;;;9.68;8.00;;;10.90;99.90;;;;;;5015749;28;20311;-82
2021/10/18 07:43:45;;;;;;;13.68;9.90;;;10.90;99.90;;;;;;5008439;28;20194;-83
2021/10/18 07:46:12;;;;;;;13.50;9.90;;;10.90;99.90;;;;;;5002608;28;20692;-82
2021/10/18 07:48:40;;;;;;;17.42;9.65;;;10.90;99.90;;;;;;5005241;28;20267;-81
2021/10/18 07:51:06;;;;;;;10.50;8.10;;;10.90;99.90;;;;;;5006918;28;20258;-83
2021/10/18 07:53:34;;;;;;;11.57;9.05;;;11.00;99.90;;;;;;5016834;28;20204;-83
2021/10/18 07:56:01;;;;;;;14.30;9.20;;;11.00;99.90;;;;;;5010633;28;20201;-82
2021/10/18 07:58:29;;;;;;;12.15;8.70;;;11.00;99.90;;;;;;5008393;28;20194;-82
2021/10/18 08:00:56;;;;;;;11.80;8.67;;;11.00;99.90;;;;;;5011304;28;20702;-82
2021/10/18 08:03:23;;;;;;;15.43;9.73;;;11.00;99.90;;;;;;5012552;28;20469;-83
2021/10/18 08:05:50;;;;;;;14.20;9.75;;;11.10;99.90;;;;;;5009908;28;20203;-82
2021/10/18 08:08:22;;;;;;;12.40;9.33;;;11.10;99.90;;;;;;5010764;28;20194;-84
2021/10/18 08:10:50;;;;;;;18.15;13.43;;;11.20;99.90;;;;;;5011916;28;20488;-82
2021/10/18 08:13:17;;;;;;;37.25;17.42;;;11.20;99.90;;;;;;5009971;28;20194;-83
2021/10/18 08:15:44;;;;;;;16.87;12.80;;;11.20;99.90;;;;;;5014623;28;21130;-84
2021/10/18 08:18:11;;;;;;;13.20;11.33;;;11.20;99.90;;;;;;5009918;28;21174;-83
2021/10/18 08:20:40;;;;;;;13.85;10.57;;;11.30;99.90;;;;;;5011852;28;20457;-83
2021/10/18 08:23:07;;;;;;;14.00;10.30;;;11.40;99.90;;;;;;5013362;28;20689;-82
2021/10/18 08:25:34;;;;;;;16.10;10.40;;;11.40;99.90;;;;;;5012105;28;20488;-82
2021/10/18 08:28:03;;;;;;;17.73;11.77;;;11.50;99.90;;;;;;5002081;28;20483;-83
2021/10/18 08:30:30;;;;;;;16.52;11.48;;;11.60;99.90;;;;;;5001017;28;20305;-84
2021/10/18 08:32:57;;;;;;;20.07;11.20;;;11.60;99.90;;;;;;5006183;28;20205;-82
2021/10/18 08:35:24;;;;;;;16.20;10.30;;;11.70;99.90;;;;;;5014329;28;20959;-82
2021/10/18 08:40:39;;;;;;;17.93;10.33;;;11.70;99.90;;;;;;5011510;28;20526;-85
2021/10/18 08:43:18;;;;;;;26.50;11.57;;;11.80;99.90;;;;;;5013863;28;21137;-82
2021/10/18 08:45:47;;;;;;;15.83;11.07;;;11.80;99.90;;;;;;5004848;28;20466;-83
2021/10/18 08:48:14;;;;;;;16.70;10.32;;;11.80;99.90;;;;;;5012108;28;20592;-83
2021/10/18 08:50:41;;;;;;;14.00;11.03;;;11.90;99.90;;;;;;5009580;28;20628;-82
2021/10/18 08:53:08;;;;;;;17.60;10.70;;;11.90;99.90;;;;;;5009143;28;20460;-81
2021/10/18 08:55:36;;;;;;;13.63;11.90;;;12.00;99.90;;;;;;5012214;28;20476;-83
2021/10/18 08:58:04;;;;;;;14.37;10.37;;;12.00;99.90;;;;;;5006195;28;20466;-82
2021/10/18 09:00:40;;;;;;;14.47;10.70;;;12.10;99.90;;;;;;5021084;28;20583;-81
2021/10/18 09:03:18;;;;;;;18.73;12.70;;;12.10;99.90;;;;;;5009096;28;20945;-82
2021/10/18 09:05:46;;;;;;;19.97;11.83;;;12.10;99.90;;;;;;5012053;28;20457;-82
2021/10/18 09:08:36;;;;;;;13.10;9.70;;;12.20;99.90;;;;;;5015246;28;20466;-82
2021/10/18 09:11:10;;;;;;;18.93;10.50;;;12.20;99.90;;;;;;5008634;28;20531;-84
2021/10/18 09:13:41;;;;;;;13.23;10.97;;;12.30;99.90;;;;;;5000277;28;20465;-83
2021/10/18 09:16:11;;;;;;;14.27;10.30;;;12.20;99.90;;;;;;5006564;28;20459;-82
2021/10/18 09:18:41;;;;;;;13.10;11.20;;;12.30;99.90;;;;;;5007107;28;20970;-81
2021/10/18 09:21:08;;;;;;;21.47;12.33;;;12.30;99.90;;;;;;5003367;28;20457;-81
2021/10/18 09:23:40;;;;;;;18.90;11.43;;;12.30;99.90;;;;;;5004826;28;20460;-81
2021/10/18 09:26:09;;;;;;;16.37;11.00;;;12.40;99.90;;;;;;5002582;28;20493;-82
2021/10/18 09:28:38;;;;;;;15.87;12.33;;;12.40;99.90;;;;;;5011282;28;20932;-81
2021/10/18 09:31:05;;;;;;;16.80;11.97;;;12.40;99.90;;;;;;5016705;28;20492;-82
2021/10/18 09:33:36;;;;;;;15.70;11.20;;;12.40;99.90;;;;;;5019879;28;20556;-81
2021/10/18 09:36:07;;;;;;;18.60;11.20;;;12.50;99.90;;;;;;5022266;28;20551;-82
2021/10/18 09:38:34;;;;;;;13.40;10.73;;;12.50;99.90;;;;;;5016093;28;20949;-82
2021/10/18 09:41:03;;;;;;;15.00;11.17;;;12.50;99.90;;;;;;5018958;28;20448;-81
2021/10/18 09:43:33;;;;;;;16.80;10.83;;;12.60;99.90;;;;;;5019198;28;20506;-82
2021/10/18 09:46:09;;;;;;;18.87;13.90;;;12.60;99.90;;;;;;5015607;28;20450;-83
2021/10/18 10:53:22;;;;;;;14.30;10.70;;;13.60;99.90;;;;;;5007356;28;21150;-81
2021/10/18 10:55:50;;;;;;;13.57;10.20;;;13.70;99.90;;;;;;5007446;28;20558;-83
2021/10/18 10:58:36;;;;;;;14.20;10.83;;;13.70;99.90;;;;;;5008725;28;20486;-81
2021/10/18 11:01:05;;;;;;;10.90;9.53;;;13.80;99.90;;;;;;4997501;28;20496;-81
2021/10/18 11:03:42;;;;;;;13.40;10.90;;;13.80;99.90;;;;;;4999453;28;20745;-83
2021/10/18 11:06:11;;;;;;;11.67;9.87;;;13.90;99.90;;;;;;5004647;28;21033;-81
2021/10/18 11:08:41;;;;;;;13.97;9.53;;;14.00;99.90;;;;;;4994560;28;22753;-83
2021/10/18 11:11:10;;;;;;;10.10;8.83;;;14.00;99.90;;;;;;5000616;28;20502;-82
2021/10/18 11:13:51;;;;;;;11.90;9.93;;;14.00;99.90;;;;;;5000685;28;20481;-82
2021/10/18 11:16:20;;;;;;;16.00;9.87;;;14.10;99.90;;;;;;5006386;28;20474;-81
2021/10/18 11:18:51;;;;;;;11.30;8.93;;;14.10;99.90;;;;;;5009347;28;20470;-81
2021/10/18 11:21:22;;;;;;;10.40;8.90;;;14.20;99.90;;;;;;5007093;28;20523;-83
2021/10/18 11:24:03;;;;;;;17.87;9.80;;;14.20;99.90;;;;;;5007538;28;20482;-81
2021/10/18 11:26:31;;;;;;;15.40;9.33;;;14.20;99.90;;;;;;5012545;28;20502;-83
2021/10/18 11:29:01;;;;;;;12.10;9.53;;;14.20;99.90;;;;;;5008263;28;20473;-82
2021/10/18 11:31:30;;;;;;;13.00;8.30;;;14.30;99.90;;;;;;5013986;28;20519;-82
2021/10/18 11:34:07;;;;;;;14.43;8.83;;;14.30;99.90;;;;;;5008263;28;20456;-84
2021/10/18 11:36:34;;;;;;;10.20;9.13;;;14.40;99.90;;;;;;5003287;28;20526;-82
2021/10/18 11:39:20;;;;;;;18.70;8.77;;;14.40;99.90;;;;;;5001262;28;20462;-82
2021/10/18 11:42:11;;;;;;;11.40;8.73;;;14.40;99.90;;;;;;5002083;28;20551;-81
2021/10/18 11:44:57;;;;;;;14.27;9.70;;;14.50;99.90;;;;;;5003788;28;20810;-81
2021/10/18 11:47:27;;;;;;;14.70;10.60;;;14.50;99.90;;;;;;5005234;28;20462;-81
2021/10/18 11:50:27;;;;;;;18.40;9.40;;;14.60;99.90;;;;;;5006283;28;20470;-82
2021/10/18 11:52:58;;;;;;;14.00;10.17;;;14.60;99.90;;;;;;4946081;28;20463;-82
2021/10/18 11:55:30;;;;;;;11.30;9.13;;;14.70;99.90;;;;;;4956046;28;20455;-81
2021/10/18 11:57:58;;;;;;;15.43;10.83;;;14.70;99.90;;;;;;4977149;28;20471;-82
2021/10/18 12:00:28;;;;;;;19.43;10.60;;;14.80;99.90;;;;;;5003674;28;20503;-82
2021/10/18 12:03:01;;;;;;;13.30;7.70;;;14.80;99.90;;;;;;5003606;28;20471;-81
2021/10/18 12:05:36;;;;;;;12.10;9.80;;;14.80;99.90;;;;;;5004982;28;20496;-83
2021/10/18 12:08:04;;;;;;;10.80;8.30;;;14.90;99.90;;;;;;5003897;28;20460;-82
2021/10/18 12:10:34;;;;;;;14.13;8.70;;;14.90;99.90;;;;;;5003420;28;20480;-81
2021/10/18 12:13:10;;;;;;;12.63;8.60;;;14.90;99.90;;;;;;5006220;28;20693;-81
2021/10/18 12:15:40;;;;;;;12.77;8.60;;;15.00;99.90;;;;;;5006654;28;21026;-82
2021/10/18 12:18:08;;;;;;;9.70;8.17;;;15.00;99.90;;;;;;5007841;28;20459;-83
2021/10/18 12:20:35;;;;;;;13.13;10.00;;;15.10;99.90;;;;;;5005778;28;20452;-83
2021/10/18 12:23:05;;;;;;;11.20;8.43;;;15.10;99.90;;;;;;5003897;28;20471;-82
2021/10/18 12:25:34;;;;;;;11.63;7.10;;;15.20;99.90;;;;;;5003997;28;20488;-82
2021/10/18 12:28:27;;;;;;;12.23;8.13;;;15.20;99.90;;;;;;4995913;28;20905;-83
2021/10/18 12:30:54;;;;;;;13.60;8.57;;;15.30;99.90;;;;;;4998692;28;20500;-82
2021/10/18 12:33:21;;;;;;;10.63;8.20;;;15.30;99.90;;;;;;5003548;28;20470;-83
2021/10/18 12:35:57;;;;;;;10.00;8.80;;;15.40;99.90;;;;;;5005726;28;21392;-82
2021/10/18 12:38:28;;;;;;;10.07;8.47;;;15.40;99.90;;;;;;5010166;28;20467;-83
2021/10/18 12:41:09;;;;;;;12.80;9.43;;;15.50;99.90;;;;;;5007091;28;20476;-82
2021/10/18 12:43:36;;;;;;;12.70;8.30;;;15.50;99.90;;;;;;5011650;28;20468;-81
2021/10/18 12:46:21;;;;;;;16.30;8.57;;;15.60;99.90;;;;;;5011081;28;20469;-83
2021/10/18 12:48:56;;;;;;;12.80;9.60;;;15.60;99.90;;;;;;5013449;28;20470;-83
2021/10/18 12:51:37;;;;;;;9.47;7.33;;;15.60;99.90;;;;;;5010768;28;20484;-83
2021/10/18 12:54:26;;;;;;;10.77;7.93;;;15.60;99.90;;;;;;5013954;28;20496;-82
2021/10/18 12:57:05;;;;;;;8.67;6.93;;;15.70;99.90;;;;;;5008478;28;20468;-82
2021/10/18 12:59:34;;;;;;;14.40;9.53;;;15.70;99.90;;;;;;5013408;28;20969;-82
2021/10/18 13:02:22;;;;;;;12.23;9.90;;;15.70;99.90;;;;;;5005598;28;20595;-82
2021/10/18 13:05:07;;;;;;;9.37;8.03;;;15.80;99.90;;;;;;4990512;28;20465;-82
2021/10/18 13:07:35;;;;;;;10.87;8.27;;;15.80;99.90;;;;;;5008683;28;20469;-82
2021/10/18 13:10:03;;;;;;;11.13;8.33;;;15.80;99.90;;;;;;5009284;28;20484;-82
2021/10/18 13:12:32;;;;;;;13.93;8.13;;;15.80;99.90;;;;;;5002738;28;20853;-82
2021/10/18 13:14:59;;;;;;;12.57;8.00;;;15.80;99.90;;;;;;5001776;28;20481;-81
2021/10/18 13:17:27;;;;;;;11.70;7.83;;;15.90;99.90;;;;;;5008871;28;20464;-81
2021/10/18 13:19:55;;;;;;;11.70;8.90;;;15.90;99.90;;;;;;5005607;28;20936;-82
2021/10/18 13:22:22;;;;;;;12.37;9.23;;;15.90;99.90;;;;;;5003159;28;20568;-81
2021/10/18 13:24:49;;;;;;;11.23;8.47;;;15.90;99.90;;;;;;4996492;28;20485;-82
2021/10/18 13:27:17;;;;;;;9.50;7.73;;;15.90;99.90;;;;;;4997692;28;20943;-81
2021/10/18 13:29:45;;;;;;;11.00;7.20;;;15.90;99.90;;;;;;4997502;28;20791;-82
2021/10/18 13:32:13;;;;;;;18.77;8.67;;;15.90;99.90;;;;;;4996956;28;20489;-82
2021/10/18 13:34:42;;;;;;;7.80;6.57;;;15.90;99.90;;;;;;5000631;28;20469;-82
2021/10/18 13:37:09;;;;;;;10.63;7.33;;;15.90;99.90;;;;;;5002993;28;20466;-83
2021/10/18 13:39:37;;;;;;;10.67;7.47;;;16.00;99.90;;;;;;5003290;28;20812;-82
2021/10/18 13:42:05;;;;;;;11.07;7.80;;;16.00;99.90;;;;;;5007487;28;20453;-82
2021/10/18 13:44:32;;;;;;;10.43;7.60;;;16.00;99.90;;;;;;4987545;28;20906;-82
2021/10/18 13:47:00;;;;;;;9.43;7.00;;;16.00;99.90;;;;;;5001683;28;20462;-83
2021/10/18 13:49:27;;;;;;;15.03;8.13;;;16.00;99.90;;;;;;4998123;28;20476;-83
2021/10/18 13:51:54;;;;;;;9.83;7.77;;;16.00;99.90;;;;;;5006334;28;20496;-81
2021/10/18 13:54:21;;;;;;;8.27;7.40;;;16.00;99.90;;;;;;5010654;28;20473;-82
2021/10/18 13:56:48;;;;;;;11.97;6.83;;;16.10;99.90;;;;;;5010221;28;20489;-82